X  Schlie├čen METAR Luftfahrt Wetterdaten     EHKD De Kooy Airport
Temperatur
59°F Temperatur
54°F Taupunkt
82% Feuchtigkeit



Wind
5 MPS
8 KM/S
2 M/S
4 KTS



290°
WNW
Aktuelle Wetterlage

Meistens vereinzelte Wolken Meistens vereinzelte Wolken
Luftdruck 1012.87 (hPa) - 29.91 (inHg)
Sichtweite 6 (Meile) - 9.7 (Km)
Flughafen
Flughafen Code EHKD

Position : De Kooy Airport
Entfernung: 34 (mi)

Metar:
EHKD 220139Z AUTO 29004KT 260V320 9999 SCT018 15/12 Q1013 BLU

Zeit: 22-07-2024 03:39 CEST